Time;durP1;ratioP1;P1;durP2;ratioP2;P2;SDS_P1;SDS_P2;PMS_P1;PMS_P2;Temp;Humidity;BMP_temperature;BMP_pressure;BME280_temperature;BME280_humidity;BME280_pressure;Samples;Min_cycle;Max_cycle;Signal;HPM_P1;HPM_P2
2022/04/04 00:00:37;;;;;;;5.60;2.45;;;;;;;;;;5049232;28;20072;-49
2022/04/04 00:03:04;;;;;;;6.88;3.30;;;;;;;;;;5050380;28;20103;-51
2022/04/04 00:05:30;;;;;;;6.72;2.70;;;;;;;;;;5050301;28;20467;-49
2022/04/04 00:07:57;;;;;;;6.95;2.60;;;;;;;;;;5050010;28;20072;-47
2022/04/04 00:10:23;;;;;;;5.60;3.25;;;;;;;;;;5050428;28;20452;-51
2022/04/04 00:12:49;;;;;;;6.50;2.97;;;;;;;;;;5049981;28;20491;-53
2022/04/04 00:15:15;;;;;;;5.15;2.30;;;;;;;;;;5050162;28;20542;-54
2022/04/04 00:17:41;;;;;;;6.20;2.10;;;;;;;;;;5050101;28;20487;-52
2022/04/04 00:20:08;;;;;;;8.27;3.38;;;;;;;;;;5050039;28;20029;-53
2022/04/04 00:22:35;;;;;;;5.15;2.72;;;;;;;;;;5049742;28;20029;-52
2022/04/04 00:25:01;;;;;;;8.13;2.55;;;;;;;;;;5049640;28;20979;-51
2022/04/04 00:27:27;;;;;;;5.47;2.20;;;;;;;;;;5049427;28;20144;-52
2022/04/04 00:29:53;;;;;;;5.10;2.20;;;;;;;;;;5049651;28;20052;-53
2022/04/04 00:32:19;;;;;;;7.47;2.97;;;;;;;;;;5049341;28;20025;-49
2022/04/04 00:34:45;;;;;;;4.45;2.28;;;;;;;;;;5049866;28;20724;-53
2022/04/04 00:37:11;;;;;;;10.15;2.17;;;;;;;;;;5049527;28;20020;-48
2022/04/04 00:39:37;;;;;;;5.32;2.60;;;;;;;;;;5049569;28;20079;-53
2022/04/04 00:42:03;;;;;;;5.97;2.22;;;;;;;;;;5049220;28;20032;-52
2022/04/04 00:44:29;;;;;;;4.25;2.35;;;;;;;;;;5048960;28;20108;-52
2022/04/04 00:46:56;;;;;;;6.32;2.35;;;;;;;;;;5050026;28;20115;-50
2022/04/04 00:49:22;;;;;;;5.60;2.42;;;;;;;;;;5048732;28;20488;-50
2022/04/04 00:51:48;;;;;;;5.75;2.63;;;;;;;;;;5048849;28;20430;-54
2022/04/04 00:54:15;;;;;;;6.93;2.50;;;;;;;;;;5049070;28;20033;-54
2022/04/04 00:56:41;;;;;;;5.18;2.50;;;;;;;;;;5049254;28;20033;-53
2022/04/04 00:59:11;;;;;;;6.53;2.55;;;;;;;;;;5048777;28;20024;-51
2022/04/04 01:01:38;;;;;;;4.78;2.10;;;;;;;;;;5049214;28;20045;-54
2022/04/04 01:04:04;;;;;;;5.88;2.60;;;;;;;;;;5048867;28;20083;-54
2022/04/04 01:06:30;;;;;;;5.22;2.22;;;;;;;;;;5049128;28;20029;-55
2022/04/04 01:08:56;;;;;;;6.85;2.35;;;;;;;;;;5048852;28;20540;-51
2022/04/04 01:11:22;;;;;;;5.05;2.35;;;;;;;;;;5049349;28;20455;-51
2022/04/04 01:13:48;;;;;;;5.07;1.95;;;;;;;;;;5048831;28;20108;-48
2022/04/04 01:16:15;;;;;;;4.68;2.22;;;;;;;;;;5049221;28;20422;-50
2022/04/04 01:18:42;;;;;;;6.43;2.45;;;;;;;;;;5048576;28;20033;-50
2022/04/04 01:21:10;;;;;;;4.25;2.10;;;;;;;;;;5048843;28;20058;-51
2022/04/04 01:23:40;;;;;;;5.10;2.33;;;;;;;;;;5048755;28;20037;-52
2022/04/04 01:26:10;;;;;;;5.05;2.25;;;;;;;;;;5048365;28;20396;-50
2022/04/04 01:28:37;;;;;;;3.67;1.95;;;;;;;;;;5048245;28;20065;-51
2022/04/04 01:31:04;;;;;;;4.82;2.60;;;;;;;;;;5048450;28;20037;-51
2022/04/04 01:33:30;;;;;;;4.20;2.03;;;;;;;;;;5048299;28;20079;-52
2022/04/04 01:36:00;;;;;;;6.32;2.53;;;;;;;;;;5048656;28;20079;-47
2022/04/04 01:38:26;;;;;;;4.20;2.25;;;;;;;;;;5048691;28;20044;-51
2022/04/04 01:40:52;;;;;;;5.30;2.15;;;;;;;;;;5048558;28;20056;-50
2022/04/04 01:43:18;;;;;;;5.38;2.60;;;;;;;;;;5048605;28;20032;-50
2022/04/04 01:48:39;;;;;;;4.80;1.95;;;;;;;;;;5048685;28;20083;-50
2022/04/04 01:51:06;;;;;;;3.97;2.03;;;;;;;;;;5048494;28;20025;-50
2022/04/04 01:53:32;;;;;;;5.32;2.20;;;;;;;;;;5048035;28;20434;-49
2022/04/04 01:56:00;;;;;;;7.13;2.40;;;;;;;;;;5048504;28;20079;-48
2022/04/04 01:58:26;;;;;;;5.10;2.00;;;;;;;;;;5048306;28;20437;-53
2022/04/04 02:00:58;;;;;;;7.32;2.30;;;;;;;;;;5047547;28;20052;-50
2022/04/04 02:03:25;;;;;;;6.32;2.28;;;;;;;;;;5048265;28;20028;-53
2022/04/04 02:05:51;;;;;;;4.78;2.05;;;;;;;;;;5047924;28;20104;-53
2022/04/04 02:08:17;;;;;;;4.03;2.05;;;;;;;;;;5048503;28;20037;-52
2022/04/04 02:10:44;;;;;;;3.90;1.98;;;;;;;;;;5047834;28;20079;-52
2022/04/04 02:13:10;;;;;;;4.50;2.00;;;;;;;;;;5048187;28;20029;-52
2022/04/04 02:15:36;;;;;;;5.75;2.72;;;;;;;;;;5042093;28;20491;-53
2022/04/04 02:18:03;;;;;;;4.65;1.92;;;;;;;;;;5048154;28;20033;-51
2022/04/04 02:20:29;;;;;;;5.88;2.05;;;;;;;;;;5048011;28;20025;-52
2022/04/04 02:22:55;;;;;;;4.45;2.33;;;;;;;;;;5050066;28;20032;-50
2022/04/04 02:25:22;;;;;;;3.67;2.22;;;;;;;;;;5052079;28;20063;-49
2022/04/04 02:27:48;;;;;;;5.90;2.15;;;;;;;;;;5051929;28;20036;-52
2022/04/04 02:30:14;;;;;;;4.63;2.38;;;;;;;;;;5052250;28;20087;-50
2022/04/04 02:32:40;;;;;;;5.10;2.00;;;;;;;;;;5049601;28;20039;-54
2022/04/04 02:35:06;;;;;;;5.13;2.20;;;;;;;;;;5050380;28;20025;-50
2022/04/04 02:37:32;;;;;;;4.65;2.17;;;;;;;;;;5049938;28;20111;-50
2022/04/04 02:39:58;;;;;;;6.35;2.38;;;;;;;;;;5050450;28;20029;-50
2022/04/04 02:42:24;;;;;;;5.05;2.63;;;;;;;;;;5049775;28;20897;-52
2022/04/04 02:44:51;;;;;;;5.07;2.35;;;;;;;;;;5050550;28;20036;-51
2022/04/04 02:47:18;;;;;;;4.32;1.95;;;;;;;;;;5050819;28;20049;-53
2022/04/04 02:49:44;;;;;;;4.00;2.20;;;;;;;;;;5051643;28;20571;-53
2022/04/04 02:52:10;;;;;;;7.28;2.80;;;;;;;;;;5051543;28;20025;-48
2022/04/04 02:54:36;;;;;;;5.15;2.15;;;;;;;;;;5051005;28;20031;-52
2022/04/04 02:57:02;;;;;;;4.20;2.20;;;;;;;;;;5051779;28;20048;-53
2022/04/04 02:59:28;;;;;;;4.68;1.92;;;;;;;;;;5051755;28;20115;-50
2022/04/04 03:01:54;;;;;;;4.65;2.10;;;;;;;;;;5051150;28;20434;-52
2022/04/04 03:04:20;;;;;;;3.05;1.77;;;;;;;;;;5051924;28;20036;-50
2022/04/04 03:06:46;;;;;;;5.38;2.10;;;;;;;;;;5052114;28;20056;-51
2022/04/04 03:09:12;;;;;;;7.35;2.60;;;;;;;;;;5051323;28;20392;-53
2022/04/04 03:11:39;;;;;;;3.72;1.92;;;;;;;;;;5051487;28;20514;-52
2022/04/04 03:14:06;;;;;;;4.57;2.10;;;;;;;;;;5051547;28;20120;-50
2022/04/04 03:16:32;;;;;;;4.70;2.20;;;;;;;;;;5051267;28;20108;-51
2022/04/04 03:18:59;;;;;;;5.38;2.58;;;;;;;;;;5050768;28;20372;-52
2022/04/04 03:21:27;;;;;;;4.82;1.83;;;;;;;;;;5051082;28;20017;-50
2022/04/04 03:23:53;;;;;;;5.40;1.98;;;;;;;;;;5050746;28;20076;-51
2022/04/04 03:26:19;;;;;;;4.90;2.38;;;;;;;;;;5051107;28;20033;-53
2022/04/04 03:28:46;;;;;;;4.88;2.28;;;;;;;;;;5050751;28;20562;-53
2022/04/04 03:31:12;;;;;;;5.88;2.33;;;;;;;;;;5051143;28;20024;-51
2022/04/04 03:33:38;;;;;;;6.15;2.85;;;;;;;;;;5050036;28;20025;-51
2022/04/04 03:36:04;;;;;;;4.60;2.22;;;;;;;;;;5050876;28;20434;-52
2022/04/04 03:38:31;;;;;;;5.90;2.08;;;;;;;;;;5050741;28;20035;-54
2022/04/04 03:40:57;;;;;;;4.05;2.03;;;;;;;;;;5040054;28;20021;-51
2022/04/04 03:43:24;;;;;;;4.53;2.50;;;;;;;;;;5050128;28;20028;-51
2022/04/04 03:45:50;;;;;;;4.50;2.22;;;;;;;;;;5050981;28;20455;-52
2022/04/04 03:48:16;;;;;;;3.33;1.75;;;;;;;;;;5050519;28;20566;-48
2022/04/04 03:50:45;;;;;;;3.83;1.95;;;;;;;;;;5050335;28;20100;-52
2022/04/04 03:53:11;;;;;;;5.50;2.53;;;;;;;;;;5049752;28;20029;-48
2022/04/04 03:55:38;;;;;;;3.83;1.90;;;;;;;;;;5050414;28;20441;-49
2022/04/04 03:58:05;;;;;;;5.20;2.30;;;;;;;;;;5050634;28;20029;-52
2022/04/04 04:00:31;;;;;;;5.22;2.45;;;;;;;;;;5050303;28;20033;-51
2022/04/04 04:02:57;;;;;;;3.53;1.73;;;;;;;;;;5050677;28;20036;-52
2022/04/04 04:05:24;;;;;;;4.07;2.17;;;;;;;;;;5050155;28;20139;-52
2022/04/04 04:07:50;;;;;;;4.25;2.25;;;;;;;;;;5050196;28;20041;-50
2022/04/04 04:10:16;;;;;;;3.60;1.95;;;;;;;;;;5049583;28;20457;-52
2022/04/04 04:12:43;;;;;;;4.20;2.20;;;;;;;;;;5050097;28;20482;-53
2022/04/04 04:15:11;;;;;;;5.43;2.20;;;;;;;;;;5050077;28;20070;-52
2022/04/04 04:17:38;;;;;;;6.07;2.20;;;;;;;;;;5049767;28;20032;-51
2022/04/04 04:20:19;;;;;;;5.82;2.42;;;;;;;;;;5050142;28;20025;-49
2022/04/04 04:22:46;;;;;;;4.28;2.00;;;;;;;;;;5050053;28;20388;-51
2022/04/04 04:25:14;;;;;;;3.45;1.90;;;;;;;;;;5049383;28;20108;-48
2022/04/04 04:27:41;;;;;;;5.05;2.72;;;;;;;;;;5049630;28;20028;-49
2022/04/04 04:30:07;;;;;;;4.07;2.25;;;;;;;;;;5049587;28;20644;-54
2022/04/04 04:32:34;;;;;;;4.05;2.03;;;;;;;;;;5049389;28;20063;-52
2022/04/04 04:35:00;;;;;;;5.90;2.67;;;;;;;;;;5049536;28;20472;-46
2022/04/04 04:37:26;;;;;;;4.28;2.33;;;;;;;;;;5049540;28;20052;-52
2022/04/04 04:39:52;;;;;;;5.40;2.38;;;;;;;;;;5049834;28;20025;-51
2022/04/04 04:42:18;;;;;;;5.47;2.00;;;;;;;;;;5049163;28;20024;-53
2022/04/04 04:44:45;;;;;;;7.97;2.90;;;;;;;;;;5045090;28;20502;-51
2022/04/04 04:47:11;;;;;;;6.50;3.40;;;;;;;;;;5042385;28;20065;-48
2022/04/04 04:49:37;;;;;;;7.32;3.47;;;;;;;;;;5040305;28;20029;-52
2022/04/04 04:52:03;;;;;;;9.73;4.35;;;;;;;;;;5043062;28;20132;-52
2022/04/04 04:54:30;;;;;;;11.13;4.13;;;;;;;;;;5048939;28;20032;-53
2022/04/04 04:56:56;;;;;;;7.75;4.28;;;;;;;;;;5049570;28;20021;-49
2022/04/04 04:59:22;;;;;;;9.50;4.45;;;;;;;;;;5049640;28;20483;-52
2022/04/04 05:01:48;;;;;;;8.02;4.68;;;;;;;;;;5048850;28;20051;-50
2022/04/04 05:04:14;;;;;;;8.90;5.10;;;;;;;;;;5049045;28;20112;-51
2022/04/04 05:06:41;;;;;;;11.63;5.15;;;;;;;;;;5048719;28;20110;-53
2022/04/04 05:09:07;;;;;;;8.25;4.90;;;;;;;;;;5049113;28;20048;-49
2022/04/04 05:11:33;;;;;;;9.85;5.13;;;;;;;;;;5048794;28;20029;-48
2022/04/04 05:13:59;;;;;;;7.20;4.65;;;;;;;;;;5041484;28;20025;-49
2022/04/04 05:16:28;;;;;;;9.48;4.97;;;;;;;;;;5049070;28;20546;-49
2022/04/04 05:18:57;;;;;;;7.50;4.85;;;;;;;;;;5049161;28;20141;-53
2022/04/04 05:21:23;;;;;;;9.18;4.70;;;;;;;;;;5048227;28;20487;-51
2022/04/04 05:23:50;;;;;;;8.50;4.93;;;;;;;;;;5048369;28;20464;-52
2022/04/04 05:26:16;;;;;;;8.27;4.85;;;;;;;;;;5049011;28;20024;-53
2022/04/04 05:28:42;;;;;;;7.13;4.60;;;;;;;;;;5048573;28;20172;-53
2022/04/04 05:31:08;;;;;;;8.88;4.82;;;;;;;;;;5048626;28;20104;-51
2022/04/04 05:33:35;;;;;;;12.20;5.00;;;;;;;;;;5043112;28;20083;-51
2022/04/04 05:36:02;;;;;;;13.52;4.88;;;;;;;;;;5038693;28;20030;-50
2022/04/04 05:38:29;;;;;;;15.18;4.78;;;;;;;;;;5040732;28;20091;-51
2022/04/04 05:40:55;;;;;;;14.18;4.43;;;;;;;;;;5041203;28;20017;-50
2022/04/04 05:43:21;;;;;;;11.80;5.10;;;;;;;;;;5043876;28;20032;-53
2022/04/04 05:45:51;;;;;;;28.80;5.57;;;;;;;;;;5036503;28;20017;-51
2022/04/04 05:48:17;;;;;;;;;;;;;;;;;;5040304;28;20032;-51
2022/04/04 05:50:43;;;;;;;15.52;4.47;;;;;;;;;;5036315;28;19917;-54
2022/04/04 05:53:10;;;;;;;10.50;4.75;;;;;;;;;;5046213;28;20087;-47
2022/04/04 05:55:36;;;;;;;17.90;4.43;;;;;;;;;;5048054;28;20021;-52
2022/04/04 05:58:02;;;;;;;10.68;4.85;;;;;;;;;;5046640;28;20025;-51
2022/04/04 06:00:28;;;;;;;15.63;5.10;;;;;;;;;;5045514;28;20033;-52
2022/04/04 06:02:55;;;;;;;12.77;5.32;;;;;;;;;;5038894;28;20059;-51
2022/04/04 06:05:21;;;;;;;17.40;3.60;;;;;;;;;;5048345;28;20139;-47
2022/04/04 06:07:47;;;;;;;17.38;4.25;;;;;;;;;;5048281;28;20029;-50
2022/04/04 06:10:15;;;;;;;17.92;4.32;;;;;;;;;;5048258;28;20489;-49
2022/04/04 06:12:44;;;;;;;16.92;3.63;;;;;;;;;;5047907;28;20048;-51
2022/04/04 06:15:10;;;;;;;15.98;5.55;;;;;;;;;;5043125;28;20071;-49
2022/04/04 06:17:38;;;;;;;16.30;4.10;;;;;;;;;;5041289;28;20775;-49
2022/04/04 06:20:05;;;;;;;19.38;4.47;;;;;;;;;;5043970;28;20021;-52
2022/04/04 06:22:38;;;;;;;16.15;4.28;;;;;;;;;;5048103;28;20037;-50
2022/04/04 06:25:07;;;;;;;19.35;3.38;;;;;;;;;;5044972;28;20026;-49
2022/04/04 06:27:33;;;;;;;19.30;3.97;;;;;;;;;;5047953;28;20025;-49
2022/04/04 06:29:59;;;;;;;17.65;4.10;;;;;;;;;;5038971;28;20047;-51
2022/04/04 06:32:26;;;;;;;16.75;4.72;;;;;;;;;;5048562;28;20036;-46
2022/04/04 06:34:52;;;;;;;18.42;3.97;;;;;;;;;;5047778;28;20028;-51
2022/04/04 06:37:18;;;;;;;19.92;4.57;;;;;;;;;;5048222;28;20079;-47
2022/04/04 06:39:44;;;;;;;15.65;3.70;;;;;;;;;;5048209;28;20052;-51
2022/04/04 06:42:11;;;;;;;15.75;4.20;;;;;;;;;;5047830;28;20510;-50
2022/04/04 06:44:37;;;;;;;25.20;4.88;;;;;;;;;;5046766;28;20833;-52
2022/04/04 06:47:04;;;;;;;22.08;5.47;;;;;;;;;;5048249;28;20487;-51
2022/04/04 06:49:30;;;;;;;20.67;4.20;;;;;;;;;;5047712;28;20049;-49
2022/04/04 06:51:56;;;;;;;20.02;3.88;;;;;;;;;;5048042;28;20027;-54
2022/04/04 06:54:23;;;;;;;18.33;4.20;;;;;;;;;;5047414;28;20589;-51
2022/04/04 06:56:49;;;;;;;11.38;3.28;;;;;;;;;;5047904;28;20021;-52
2022/04/04 06:59:18;;;;;;;22.58;4.60;;;;;;;;;;5048190;28;20075;-50
2022/04/04 07:01:44;;;;;;;20.25;3.60;;;;;;;;;;5047852;28;20096;-53
2022/04/04 07:04:10;;;;;;;19.63;4.07;;;;;;;;;;5048264;28;20025;-52
2022/04/04 07:06:37;;;;;;;16.38;4.32;;;;;;;;;;5047452;28;20037;-52
2022/04/04 07:09:03;;;;;;;18.10;3.97;;;;;;;;;;5049456;28;20055;-51
2022/04/04 07:11:29;;;;;;;22.30;3.65;;;;;;;;;;5050437;28;20039;-54
2022/04/04 07:13:56;;;;;;;25.70;3.75;;;;;;;;;;5051437;28;20032;-54
2022/04/04 07:16:22;;;;;;;24.92;4.32;;;;;;;;;;5051153;28;20110;-51
2022/04/04 07:18:48;;;;;;;22.67;3.25;;;;;;;;;;5050956;28;20025;-49
2022/04/04 07:21:18;;;;;;;19.73;4.18;;;;;;;;;;5047626;28;20033;-52
2022/04/04 07:23:44;;;;;;;17.90;3.90;;;;;;;;;;5043308;28;20866;-50
2022/04/04 07:26:10;;;;;;;21.70;4.53;;;;;;;;;;5041983;28;20494;-49
2022/04/04 07:28:36;;;;;;;25.10;4.55;;;;;;;;;;5042603;28;20045;-50
2022/04/04 07:31:06;;;;;;;18.92;4.38;;;;;;;;;;5038924;28;20025;-52
2022/04/04 07:33:32;;;;;;;24.38;4.55;;;;;;;;;;5046694;28;20029;-49
2022/04/04 07:35:58;;;;;;;18.38;4.07;;;;;;;;;;5041627;28;20028;-48
2022/04/04 07:38:25;;;;;;;15.27;3.10;;;;;;;;;;5050808;28;20025;-52
2022/04/04 07:40:51;;;;;;;19.08;3.47;;;;;;;;;;5049632;28;20079;-50
2022/04/04 07:43:18;;;;;;;20.63;4.07;;;;;;;;;;5049029;28;20049;-53
2022/04/04 07:45:44;;;;;;;20.08;5.25;;;;;;;;;;5039999;28;20033;-51
2022/04/04 07:48:11;;;;;;;18.15;4.22;;;;;;;;;;5034690;28;20072;-51
2022/04/04 07:50:37;;;;;;;19.63;4.03;;;;;;;;;;5032379;28;20069;-52
2022/04/04 07:53:03;;;;;;;13.02;3.85;;;;;;;;;;5034101;28;20033;-53
2022/04/04 07:55:30;;;;;;;9.85;2.97;;;;;;;;;;5032465;28;20075;-50
2022/04/04 07:57:56;;;;;;;15.05;3.53;;;;;;;;;;5036195;28;20099;-52
2022/04/04 08:00:24;;;;;;;17.80;3.10;;;;;;;;;;5033273;28;20059;-52
2022/04/04 08:02:50;;;;;;;9.55;2.45;;;;;;;;;;5034610;28;20032;-51
2022/04/04 08:05:16;;;;;;;17.60;4.95;;;;;;;;;;5034640;28;20037;-50
2022/04/04 08:07:47;;;;;;;9.88;3.05;;;;;;;;;;5037305;28;20048;-51
2022/04/04 08:10:14;;;;;;;10.23;3.50;;;;;;;;;;5032866;28;20029;-49
2022/04/04 08:12:40;;;;;;;13.60;3.35;;;;;;;;;;5033335;28;20083;-52
2022/04/04 08:15:06;;;;;;;11.40;3.33;;;;;;;;;;5030327;28;20475;-51
2022/04/04 08:17:32;;;;;;;11.40;2.92;;;;;;;;;;5034706;28;20024;-51
2022/04/04 08:19:58;;;;;;;10.00;3.88;;;;;;;;;;5038812;28;20041;-49
2022/04/04 08:22:24;;;;;;;11.10;3.50;;;;;;;;;;5035942;28;20444;-53
2022/04/04 08:24:51;;;;;;;11.18;3.28;;;;;;;;;;5034630;28;20025;-53
2022/04/04 08:27:17;;;;;;;10.20;3.60;;;;;;;;;;5032964;28;20395;-53
2022/04/04 08:29:43;;;;;;;11.40;3.20;;;;;;;;;;5032605;28;20106;-54
2022/04/04 08:32:09;;;;;;;14.30;3.22;;;;;;;;;;5037000;28;20060;-53
2022/04/04 08:34:35;;;;;;;13.52;2.65;;;;;;;;;;5033364;28;20109;-50
2022/04/04 08:37:01;;;;;;;10.93;3.55;;;;;;;;;;5036392;28;20464;-52
2022/04/04 08:39:28;;;;;;;8.15;2.42;;;;;;;;;;5038847;28;20033;-52
2022/04/04 08:41:55;;;;;;;11.95;3.30;;;;;;;;;;5039402;28;20040;-52
2022/04/04 08:44:22;;;;;;;11.80;3.55;;;;;;;;;;5033231;28;20078;-51
2022/04/04 08:46:48;;;;;;;9.15;3.05;;;;;;;;;;5034898;28;20071;-52
2022/04/04 08:49:14;;;;;;;9.13;3.20;;;;;;;;;;5033986;28;20439;-54
2022/04/04 08:51:42;;;;;;;9.02;3.10;;;;;;;;;;5032560;28;20037;-50
2022/04/04 08:54:08;;;;;;;9.45;2.80;;;;;;;;;;5034163;28;20492;-52
2022/04/04 08:56:34;;;;;;;7.60;3.25;;;;;;;;;;5035935;28;20021;-52
2022/04/04 08:59:00;;;;;;;6.30;2.72;;;;;;;;;;5036374;28;20970;-51
2022/04/04 09:01:27;;;;;;;7.85;3.00;;;;;;;;;;5035117;28;20058;-48
2022/04/04 09:04:13;;;;;;;7.90;3.03;;;;;;;;;;5033678;28;20032;-51
2022/04/04 09:06:51;;;;;;;8.13;3.53;;;;;;;;;;5035187;28;20669;-50
2022/04/04 09:09:41;;;;;;;13.90;3.03;;;;;;;;;;5032547;28;20056;-51
2022/04/04 09:12:07;;;;;;;5.68;2.65;;;;;;;;;;5030745;28;20035;-52
2022/04/04 09:14:44;;;;;;;8.40;2.67;;;;;;;;;;5034965;28;20064;-50
2022/04/04 09:17:11;;;;;;;8.98;4.07;;;;;;;;;;5032252;28;20067;-48
2022/04/04 09:19:38;;;;;;;7.63;2.95;;;;;;;;;;5035285;28;21026;-52
2022/04/04 09:22:08;;;;;;;9.77;3.25;;;;;;;;;;5033482;28;20512;-47
2022/04/04 09:24:46;;;;;;;7.93;2.90;;;;;;;;;;5035524;28;20039;-53
2022/04/04 09:27:13;;;;;;;13.95;3.70;;;;;;;;;;5030803;28;20365;-54
2022/04/04 09:29:42;;;;;;;6.57;2.65;;;;;;;;;;5035231;28;20057;-47
2022/04/04 09:32:11;;;;;;;6.18;2.70;;;;;;;;;;5036244;28;20024;-49
2022/04/04 09:34:49;;;;;;;8.73;3.22;;;;;;;;;;5034818;28;20125;-49
2022/04/04 09:37:15;;;;;;;5.18;2.40;;;;;;;;;;5040344;28;20155;-51
2022/04/04 09:39:41;;;;;;;6.72;2.67;;;;;;;;;;5036447;28;20551;-50
2022/04/04 09:42:17;;;;;;;6.93;2.63;;;;;;;;;;5029090;28;20106;-51
2022/04/04 09:44:56;;;;;;;9.45;3.65;;;;;;;;;;5035430;28;20025;-49
2022/04/04 09:47:23;;;;;;;7.32;2.33;;;;;;;;;;5029896;28;20032;-53
2022/04/04 09:49:50;;;;;;;7.68;2.60;;;;;;;;;;5032134;28;20052;-48
2022/04/04 09:52:16;;;;;;;7.85;2.80;;;;;;;;;;5032563;28;20044;-51
2022/04/04 09:54:46;;;;;;;5.80;2.78;;;;;;;;;;5034848;28;20029;-53
2022/04/04 09:57:16;;;;;;;8.13;3.13;;;;;;;;;;5036375;28;20033;-50
2022/04/04 09:59:42;;;;;;;8.93;2.90;;;;;;;;;;5036291;28;20057;-48
2022/04/04 10:02:10;;;;;;;7.13;2.72;;;;;;;;;;5036380;28;20059;-52
2022/04/04 10:04:36;;;;;;;5.53;2.80;;;;;;;;;;5038043;28;20033;-52
2022/04/04 10:07:04;;;;;;;5.20;2.55;;;;;;;;;;5035624;28;20038;-51
2022/04/04 10:09:30;;;;;;;11.73;3.45;;;;;;;;;;5036533;28;20888;-50
2022/04/04 10:11:58;;;;;;;7.72;3.08;;;;;;;;;;5030053;28;20159;-53
2022/04/04 10:14:24;;;;;;;5.25;2.10;;;;;;;;;;5039345;28;20395;-53
2022/04/04 10:16:52;;;;;;;7.22;2.15;;;;;;;;;;5033459;28;20036;-53
2022/04/04 10:19:18;;;;;;;10.70;3.25;;;;;;;;;;5032664;28;20036;-50
2022/04/04 10:21:46;;;;;;;5.60;2.50;;;;;;;;;;5033928;28;20026;-49
2022/04/04 10:24:13;;;;;;;6.25;2.47;;;;;;;;;;5037135;28;20060;-53
2022/04/04 10:26:39;;;;;;;9.20;3.28;;;;;;;;;;5028530;28;20033;-49
2022/04/04 10:29:09;;;;;;;7.15;2.65;;;;;;;;;;5032773;28;20140;-50
2022/04/04 10:32:03;;;;;;;7.53;2.85;;;;;;;;;;5033732;28;20036;-49
2022/04/04 10:34:29;;;;;;;5.70;2.55;;;;;;;;;;5035213;28;20508;-50
2022/04/04 10:37:08;;;;;;;6.63;3.13;;;;;;;;;;5035355;28;20128;-53
2022/04/04 10:39:45;;;;;;;8.35;2.78;;;;;;;;;;5033574;28;20595;-51
2022/04/04 10:42:25;;;;;;;6.60;2.47;;;;;;;;;;5029546;28;20059;-52
2022/04/04 10:45:04;;;;;;;5.40;2.38;;;;;;;;;;5035247;28;20537;-53
2022/04/04 10:47:30;;;;;;;4.53;2.25;;;;;;;;;;5038193;28;20175;-53
2022/04/04 10:49:57;;;;;;;5.88;2.38;;;;;;;;;;5033432;28;20083;-49
2022/04/04 10:52:37;;;;;;;4.25;1.70;;;;;;;;;;5033213;28;20096;-52
2022/04/04 10:55:25;;;;;;;5.95;2.70;;;;;;;;;;5033835;28;20053;-51
2022/04/04 10:57:57;;;;;;;5.40;2.65;;;;;;;;;;5032968;28;20113;-52
2022/04/04 11:00:33;;;;;;;4.95;2.53;;;;;;;;;;5036573;28;20493;-50
2022/04/04 11:03:01;;;;;;;8.27;3.13;;;;;;;;;;5032680;28;20036;-54
2022/04/04 11:08:31;;;;;;;5.30;2.33;;;;;;;;;;5037445;28;20110;-52
2022/04/04 11:10:58;;;;;;;5.60;2.00;;;;;;;;;;5034396;28;20079;-51
2022/04/04 11:13:24;;;;;;;6.38;2.10;;;;;;;;;;5033859;28;20160;-53
2022/04/04 11:15:55;;;;;;;7.35;1.98;;;;;;;;;;5034522;28;20036;-52
2022/04/04 11:18:22;;;;;;;6.38;2.45;;;;;;;;;;5036505;28;20543;-51
2022/04/04 11:20:50;;;;;;;15.88;2.83;;;;;;;;;;5035808;28;20033;-51
2022/04/04 11:23:17;;;;;;;6.13;2.55;;;;;;;;;;5033365;28;20071;-55
2022/04/04 11:25:52;;;;;;;7.25;2.00;;;;;;;;;;5036909;28;20051;-52
2022/04/04 11:28:18;;;;;;;8.60;2.13;;;;;;;;;;5036855;28;20065;-51
2022/04/04 11:30:44;;;;;;;4.70;1.90;;;;;;;;;;5035648;28;20603;-52
2022/04/04 11:33:17;;;;;;;4.40;1.80;;;;;;;;;;5034165;28;20166;-52
2022/04/04 11:35:47;;;;;;;10.57;2.42;;;;;;;;;;5036929;28;20027;-49
2022/04/04 11:38:13;;;;;;;5.03;1.92;;;;;;;;;;5036940;28;20534;-47
2022/04/04 11:40:42;;;;;;;3.30;1.45;;;;;;;;;;5037196;28;20654;-53
2022/04/04 11:43:13;;;;;;;4.67;1.57;;;;;;;;;;5034566;28;20028;-51
2022/04/04 11:45:40;;;;;;;6.25;2.10;;;;;;;;;;5038467;28;20101;-45
2022/04/04 11:48:10;;;;;;;6.40;1.92;;;;;;;;;;5036201;28;20035;-53
2022/04/04 11:50:39;;;;;;;3.38;1.42;;;;;;;;;;5036733;28;20076;-52
2022/04/04 11:53:05;;;;;;;7.53;2.00;;;;;;;;;;5037393;28;20033;-48
2022/04/04 11:55:32;;;;;;;5.55;1.90;;;;;;;;;;5035104;28;20109;-50
2022/04/04 11:57:59;;;;;;;4.47;1.80;;;;;;;;;;5036640;28;20669;-51
2022/04/04 12:00:32;;;;;;;7.82;1.90;;;;;;;;;;5035616;28;20033;-51
2022/04/04 12:03:12;;;;;;;7.07;2.50;;;;;;;;;;5035554;28;20029;-47
2022/04/04 12:05:38;;;;;;;;;;;;;;;;;;5036419;28;20816;-50
2022/04/04 12:08:06;;;;;;;6.53;1.77;;;;;;;;;;5036583;28;19912;-51
2022/04/04 12:10:32;;;;;;;2.60;1.30;;;;;;;;;;5037377;28;20041;-52
2022/04/04 12:13:04;;;;;;;4.13;1.80;;;;;;;;;;5034502;28;20067;-50
2022/04/04 12:15:32;;;;;;;3.97;1.63;;;;;;;;;;5036391;28;20033;-50
2022/04/04 12:17:59;;;;;;;4.78;1.50;;;;;;;;;;5034177;28;20025;-52
2022/04/04 12:20:25;;;;;;;5.05;1.52;;;;;;;;;;5033870;28;20025;-51
2022/04/04 12:25:37;;;;;;;4.03;1.92;;;;;;;;;;5032869;28;20994;-49
2022/04/04 12:28:04;;;;;;;5.20;1.65;;;;;;;;;;5032353;28;20132;-49
2022/04/04 12:30:34;;;;;;;7.05;2.08;;;;;;;;;;5035235;28;20029;-46
2022/04/04 12:33:26;;;;;;;4.03;1.60;;;;;;;;;;5035886;28;20152;-51
2022/04/04 12:35:52;;;;;;;5.88;1.92;;;;;;;;;;5032581;28;20119;-46
2022/04/04 12:38:45;;;;;;;3.70;1.60;;;;;;;;;;5034339;28;20547;-48
2022/04/04 12:41:13;;;;;;;5.22;1.65;;;;;;;;;;5030139;28;20156;-52
2022/04/04 12:43:40;;;;;;;5.43;1.83;;;;;;;;;;5034540;28;20037;-48
2022/04/04 12:46:07;;;;;;;6.15;1.58;;;;;;;;;;5031755;28;20033;-48
2022/04/04 12:48:37;;;;;;;5.85;1.85;;;;;;;;;;5033870;28;20053;-47
2022/04/04 12:51:04;;;;;;;8.00;1.55;;;;;;;;;;5030563;28;20047;-50
2022/04/04 12:53:45;;;;;;;4.50;1.48;;;;;;;;;;5046798;28;20058;-50
2022/04/04 12:56:13;;;;;;;5.75;1.80;;;;;;;;;;5048815;28;20025;-51
2022/04/04 12:58:39;;;;;;;4.97;1.60;;;;;;;;;;5048647;28;20131;-48
2022/04/04 13:01:16;;;;;;;11.57;1.95;;;;;;;;;;5049044;28;20021;-51
2022/04/04 13:03:48;;;;;;;10.57;1.77;;;;;;;;;;5047584;28;20056;-50
2022/04/04 13:06:16;;;;;;;3.40;1.23;;;;;;;;;;5048447;28;20017;-51
2022/04/04 13:08:51;;;;;;;5.40;1.30;;;;;;;;;;5048861;28;20119;-45
2022/04/04 13:11:17;;;;;;;8.57;1.27;;;;;;;;;;5029566;28;20032;-51
2022/04/04 13:13:57;;;;;;;9.38;1.67;;;;;;;;;;5042832;28;20772;-49
2022/04/04 13:16:30;;;;;;;8.68;1.75;;;;;;;;;;5048889;28;20024;-50
2022/04/04 13:18:56;;;;;;;8.75;1.17;;;;;;;;;;5048894;28;20032;-49
2022/04/04 13:21:22;;;;;;;3.83;1.63;;;;;;;;;;5048501;28;20025;-50
2022/04/04 13:23:48;;;;;;;8.20;1.80;;;;;;;;;;5048129;28;20019;-50
2022/04/04 13:26:14;;;;;;;15.45;1.50;;;;;;;;;;5047275;28;20386;-50
2022/04/04 13:28:40;;;;;;;3.78;1.40;;;;;;;;;;5048460;28;20922;-51
2022/04/04 13:31:06;;;;;;;3.45;1.20;;;;;;;;;;5048634;28;20096;-52
2022/04/04 13:33:32;;;;;;;6.43;1.30;;;;;;;;;;5048358;28;20021;-51
2022/04/04 13:35:59;;;;;;;4.47;1.48;;;;;;;;;;5048436;28;20036;-51
2022/04/04 13:38:26;;;;;;;7.72;1.65;;;;;;;;;;5048449;28;20090;-49
2022/04/04 13:40:52;;;;;;;4.57;1.45;;;;;;;;;;5046202;28;20532;-49
2022/04/04 13:43:18;;;;;;;6.93;1.27;;;;;;;;;;5047958;28;20029;-49
2022/04/04 13:45:44;;;;;;;6.20;1.52;;;;;;;;;;5048421;28;20103;-50
2022/04/04 13:48:11;;;;;;;6.68;1.40;;;;;;;;;;5048100;28;20020;-54
2022/04/04 13:50:37;;;;;;;3.42;1.10;;;;;;;;;;5048125;28;20597;-52
2022/04/04 13:53:03;;;;;;;4.28;1.40;;;;;;;;;;5048279;28;20309;-53
2022/04/04 13:55:29;;;;;;;3.95;1.10;;;;;;;;;;5047852;28;20036;-51
2022/04/04 13:57:55;;;;;;;5.32;1.52;;;;;;;;;;5047855;28;20028;-46
2022/04/04 14:00:21;;;;;;;3.70;1.00;;;;;;;;;;5048000;28;20474;-51
2022/04/04 14:02:47;;;;;;;6.68;1.35;;;;;;;;;;5048436;28;20021;-50
2022/04/04 14:05:15;;;;;;;2.78;1.00;;;;;;;;;;5047775;28;20112;-50
2022/04/04 14:07:41;;;;;;;4.63;1.50;;;;;;;;;;5046752;28;20086;-52
2022/04/04 14:10:08;;;;;;;3.35;1.00;;;;;;;;;;5046793;28;20672;-51
2022/04/04 14:12:37;;;;;;;3.33;1.10;;;;;;;;;;5047557;28;20503;-49
2022/04/04 14:15:04;;;;;;;5.40;1.25;;;;;;;;;;5047777;28;20765;-50
2022/04/04 14:17:32;;;;;;;7.40;1.20;;;;;;;;;;5047206;28;20415;-52
2022/04/04 14:19:59;;;;;;;5.15;1.08;;;;;;;;;;5051496;28;20052;-53
2022/04/04 14:22:25;;;;;;;5.07;1.00;;;;;;;;;;5051583;28;20040;-50
2022/04/04 14:24:54;;;;;;;1.80;0.82;;;;;;;;;;5051881;28;20017;-53
2022/04/04 14:27:21;;;;;;;6.55;1.38;;;;;;;;;;5051796;28;20044;-52
2022/04/04 14:29:48;;;;;;;6.43;1.20;;;;;;;;;;5051464;28;20460;-52
2022/04/04 14:32:15;;;;;;;7.25;1.20;;;;;;;;;;5041989;28;20119;-52
2022/04/04 14:34:41;;;;;;;4.75;1.20;;;;;;;;;;5051946;28;20450;-50
2022/04/04 14:37:07;;;;;;;3.67;1.52;;;;;;;;;;5050698;28;20056;-53
2022/04/04 14:39:33;;;;;;;3.53;0.90;;;;;;;;;;5051067;28;20527;-48
2022/04/04 14:41:59;;;;;;;5.85;1.17;;;;;;;;;;5051536;28;20506;-51
2022/04/04 14:44:25;;;;;;;4.55;1.00;;;;;;;;;;5051414;28;20028;-52
2022/04/04 14:46:52;;;;;;;5.53;1.02;;;;;;;;;;5048987;28;20107;-55
2022/04/04 14:49:18;;;;;;;3.80;1.10;;;;;;;;;;5051411;28;20163;-54
2022/04/04 14:51:44;;;;;;;4.40;1.00;;;;;;;;;;5051220;28;20029;-52